Time;durP1;ratioP1;P1;durP2;ratioP2;P2;SDS_P1;SDS_P2;PMS_P1;PMS_P2;Temp;Humidity;BMP_temperature;BMP_pressure;BME280_temperature;BME280_humidity;BME280_pressure;Samples;Min_cycle;Max_cycle;Signal;HPM_P1;HPM_P2
2024/02/27 00:02:13;;;;;;;17.67;9.27;;;4.70;99.90;;;;;;4972434;28;20061;-84
2024/02/27 00:04:41;;;;;;;13.25;7.38;;;4.70;99.90;;;;;;4960195;28;20141;-84
2024/02/27 00:07:11;;;;;;;12.15;6.95;;;4.60;99.90;;;;;;4979368;28;20121;-83
2024/02/27 00:09:45;;;;;;;13.98;7.55;;;4.60;99.90;;;;;;4954733;28;20083;-84
2024/02/27 00:12:12;;;;;;;15.75;8.45;;;4.50;99.90;;;;;;4940479;29;20588;-77
2024/02/27 00:14:39;;;;;;;17.05;9.70;;;4.50;99.90;;;;;;4945058;28;20109;-78
2024/02/27 00:17:06;;;;;;;17.63;9.85;;;4.50;99.90;;;;;;4936390;28;20046;-78
2024/02/27 00:19:33;;;;;;;18.45;9.60;;;4.50;99.90;;;;;;4977251;28;20050;-77
2024/02/27 00:22:01;;;;;;;20.00;11.75;;;4.50;99.90;;;;;;4937346;28;20078;-77
2024/02/27 00:24:28;;;;;;;18.90;10.20;;;4.50;99.90;;;;;;4930812;28;20039;-77
2024/02/27 00:26:55;;;;;;;19.23;11.15;;;4.60;99.90;;;;;;4924344;28;20055;-77
2024/02/27 00:29:22;;;;;;;19.38;11.00;;;4.60;99.90;;;;;;4955024;28;20137;-77
2024/02/27 00:31:49;;;;;;;16.88;9.25;;;4.60;99.90;;;;;;4948168;28;20062;-77
2024/02/27 00:34:16;;;;;;;17.58;10.38;;;4.60;99.90;;;;;;4947696;28;20082;-77
2024/02/27 00:36:43;;;;;;;18.38;9.63;;;4.60;99.90;;;;;;4928054;28;20042;-77
2024/02/27 00:39:11;;;;;;;16.95;9.52;;;4.60;99.90;;;;;;4932966;28;20038;-77
2024/02/27 00:41:40;;;;;;;19.02;10.43;;;4.60;99.90;;;;;;4947975;28;20051;-77
2024/02/27 00:44:07;;;;;;;16.55;9.15;;;4.60;99.90;;;;;;4949502;28;20047;-77
2024/02/27 00:46:36;;;;;;;14.82;8.48;;;4.50;99.90;;;;;;4943715;28;20499;-77
2024/02/27 00:49:03;;;;;;;14.68;7.80;;;4.50;99.90;;;;;;4957569;28;20054;-77
2024/02/27 00:51:30;;;;;;;15.35;8.13;;;4.50;99.90;;;;;;4962441;28;20475;-77
2024/02/27 00:53:58;;;;;;;14.90;7.45;;;4.50;99.90;;;;;;4949835;29;20055;-77
2024/02/27 00:56:25;;;;;;;14.80;8.02;;;4.40;99.90;;;;;;4962608;28;20098;-77
2024/02/27 00:58:52;;;;;;;14.07;8.40;;;4.50;99.90;;;;;;4960733;28;20047;-77
2024/02/27 01:01:19;;;;;;;16.70;8.88;;;4.40;99.90;;;;;;4939327;29;20138;-77
2024/02/27 01:03:46;;;;;;;15.20;8.35;;;4.50;99.90;;;;;;4946978;28;20042;-77
2024/02/27 01:06:14;;;;;;;14.13;7.25;;;4.50;99.90;;;;;;4952801;28;20142;-84
2024/02/27 01:08:41;;;;;;;15.18;7.80;;;4.50;99.90;;;;;;4962614;28;20038;-83
2024/02/27 01:11:08;;;;;;;13.02;7.20;;;4.60;99.90;;;;;;4955960;28;20038;-83
2024/02/27 01:13:35;;;;;;;15.90;7.85;;;4.60;99.90;;;;;;4935589;28;20046;-83
2024/02/27 01:16:03;;;;;;;15.82;8.55;;;4.60;99.90;;;;;;4943248;28;20066;-83
2024/02/27 01:18:30;;;;;;;13.98;7.43;;;4.60;99.90;;;;;;4949322;28;20046;-83
2024/02/27 01:21:00;;;;;;;17.20;8.82;;;4.60;99.90;;;;;;4975143;28;20042;-83
2024/02/27 01:23:27;;;;;;;17.75;9.60;;;4.60;99.90;;;;;;4939624;28;20049;-83
2024/02/27 01:25:54;;;;;;;16.52;8.93;;;4.60;99.90;;;;;;4929524;28;20043;-83
2024/02/27 01:28:21;;;;;;;16.40;8.27;;;4.60;99.90;;;;;;4958726;28;20078;-83
2024/02/27 01:30:49;;;;;;;17.65;9.02;;;4.60;99.90;;;;;;4969508;28;20073;-83
2024/02/27 01:33:17;;;;;;;13.23;7.05;;;4.60;99.90;;;;;;4927640;28;20455;-83
2024/02/27 01:35:44;;;;;;;11.43;6.30;;;4.60;99.90;;;;;;4968539;28;20047;-83
2024/02/27 01:38:11;;;;;;;13.63;6.20;;;4.60;99.90;;;;;;4937419;28;20054;-83
2024/02/27 01:40:38;;;;;;;16.40;8.32;;;4.60;99.90;;;;;;4930119;28;20503;-83
2024/02/27 01:43:22;;;;;;;18.13;9.32;;;4.60;99.90;;;;;;4959399;28;20038;-78
2024/02/27 01:46:03;;;;;;;14.63;7.30;;;4.50;99.90;;;;;;4944711;28;20043;-77
2024/02/27 01:48:33;;;;;;;14.30;7.80;;;4.40;99.90;;;;;;4965816;28;20090;-77
2024/02/27 01:51:01;;;;;;;12.65;6.53;;;4.40;99.90;;;;;;4935395;28;20102;-77
2024/02/27 01:53:29;;;;;;;12.02;6.35;;;4.40;99.90;;;;;;4973423;28;20050;-77
2024/02/27 01:55:58;;;;;;;13.82;7.75;;;4.30;99.90;;;;;;4929353;28;20045;-77
2024/02/27 01:58:25;;;;;;;12.98;6.43;;;4.30;99.90;;;;;;4942672;28;20053;-77
2024/02/27 02:00:52;;;;;;;15.02;7.38;;;4.20;99.90;;;;;;4942207;28;20054;-77
2024/02/27 02:03:22;;;;;;;14.85;7.55;;;4.20;99.90;;;;;;4942074;29;20444;-77
2024/02/27 02:05:50;;;;;;;14.15;7.60;;;4.10;99.90;;;;;;4979146;28;20047;-77
2024/02/27 02:08:18;;;;;;;16.65;8.27;;;4.10;99.90;;;;;;4960026;28;20043;-77
2024/02/27 02:10:45;;;;;;;20.50;9.75;;;4.10;99.90;;;;;;4944841;28;20055;-77
2024/02/27 02:13:12;;;;;;;15.88;8.48;;;4.00;99.90;;;;;;4937934;28;20051;-77
2024/02/27 02:15:39;;;;;;;12.80;7.00;;;4.00;99.90;;;;;;4897431;28;20054;-77
2024/02/27 02:18:06;;;;;;;16.35;8.23;;;4.00;99.90;;;;;;4944216;29;20436;-77
2024/02/27 02:20:34;;;;;;;17.65;9.35;;;3.90;99.90;;;;;;4929887;29;20047;-77
2024/02/27 02:23:01;;;;;;;16.13;7.97;;;3.90;99.90;;;;;;4925255;28;20050;-77
2024/02/27 02:25:32;;;;;;;15.85;7.95;;;3.90;99.90;;;;;;4964271;28;20053;-77
2024/02/27 02:27:59;;;;;;;15.73;7.43;;;3.80;99.90;;;;;;4971349;28;20129;-77
2024/02/27 02:30:26;;;;;;;15.82;7.95;;;3.80;99.90;;;;;;4943892;28;20286;-77
2024/02/27 02:32:53;;;;;;;16.90;7.53;;;3.80;99.90;;;;;;4940502;28;20051;-77
2024/02/27 02:35:20;;;;;;;15.70;7.63;;;3.80;99.90;;;;;;4955185;28;20055;-77
2024/02/27 02:37:49;;;;;;;15.60;7.78;;;3.70;99.90;;;;;;4941646;28;20051;-77
2024/02/27 02:40:21;;;;;;;14.13;7.05;;;3.70;99.90;;;;;;4985298;28;20039;-77
2024/02/27 02:42:48;;;;;;;14.57;7.03;;;3.70;99.90;;;;;;4949478;28;20043;-77
2024/02/27 02:45:15;;;;;;;15.48;7.90;;;3.60;99.90;;;;;;4978176;28;20041;-77
2024/02/27 02:47:43;;;;;;;13.45;6.82;;;3.60;99.90;;;;;;4952714;28;20061;-77
2024/02/27 02:50:12;;;;;;;17.23;8.73;;;3.60;99.90;;;;;;4968393;28;20061;-78
2024/02/27 02:52:39;;;;;;;16.73;8.00;;;3.60;99.90;;;;;;4941753;28;20043;-77
2024/02/27 02:55:08;;;;;;;13.75;7.30;;;3.60;99.90;;;;;;4943579;28;20090;-77
2024/02/27 02:57:35;;;;;;;16.83;8.25;;;3.50;99.90;;;;;;4970779;28;20451;-77
2024/02/27 03:00:05;;;;;;;14.13;7.70;;;3.50;99.90;;;;;;4930155;29;20404;-77
2024/02/27 03:02:32;;;;;;;14.20;6.82;;;3.50;99.90;;;;;;4951275;28;20051;-77
2024/02/27 03:04:59;;;;;;;17.65;8.10;;;3.50;99.90;;;;;;4931399;28;20050;-77
2024/02/27 03:07:26;;;;;;;13.38;6.75;;;3.40;99.90;;;;;;4974918;28;20133;-77
2024/02/27 03:09:53;;;;;;;10.50;5.72;;;3.40;99.90;;;;;;4959416;28;20081;-77
2024/02/27 03:12:23;;;;;;;11.30;5.85;;;3.40;99.90;;;;;;4920872;28;20050;-77
2024/02/27 03:14:50;;;;;;;14.50;6.53;;;3.40;99.90;;;;;;4959622;28;20057;-83
2024/02/27 03:17:18;;;;;;;13.43;6.28;;;3.40;99.90;;;;;;4954924;28;20046;-83
2024/02/27 03:19:45;;;;;;;11.23;5.50;;;3.40;99.90;;;;;;4912554;28;20042;-82
2024/02/27 03:22:13;;;;;;;13.32;6.45;;;3.40;99.90;;;;;;4949862;28;20401;-83
2024/02/27 03:24:43;;;;;;;13.23;6.50;;;3.40;99.90;;;;;;4931712;28;20050;-83
2024/02/27 03:27:10;;;;;;;11.55;5.40;;;3.30;99.90;;;;;;4972203;28;20150;-83
2024/02/27 03:29:37;;;;;;;15.25;6.72;;;3.30;99.90;;;;;;4960457;28;20046;-83
2024/02/27 03:32:04;;;;;;;13.75;6.60;;;3.30;99.90;;;;;;4944753;28;20480;-83
2024/02/27 03:34:34;;;;;;;13.40;6.45;;;3.30;99.90;;;;;;4965008;28;20051;-83
2024/02/27 03:37:01;;;;;;;14.40;7.75;;;3.30;99.90;;;;;;4956987;28;20089;-83
2024/02/27 03:39:29;;;;;;;13.73;7.32;;;3.20;99.90;;;;;;4924974;29;20047;-83
2024/02/27 03:41:56;;;;;;;17.05;8.10;;;3.20;99.90;;;;;;4967462;28;20043;-83
2024/02/27 03:44:24;;;;;;;15.23;7.93;;;3.20;99.90;;;;;;4972940;28;20047;-83
2024/02/27 03:46:51;;;;;;;15.00;7.35;;;3.20;99.90;;;;;;4957811;28;20478;-83
2024/02/27 03:49:18;;;;;;;17.77;8.75;;;3.20;99.90;;;;;;4950077;28;20070;-83
2024/02/27 03:51:45;;;;;;;17.90;8.27;;;3.10;99.90;;;;;;4935035;28;20051;-84
2024/02/27 03:54:12;;;;;;;13.93;7.07;;;3.10;99.90;;;;;;4927703;28;20047;-83
2024/02/27 03:56:39;;;;;;;16.83;7.78;;;3.10;99.90;;;;;;4936716;28;20479;-83
2024/02/27 03:59:06;;;;;;;13.57;7.18;;;3.10;99.90;;;;;;4943217;28;20102;-83
2024/02/27 04:01:33;;;;;;;12.55;6.10;;;3.10;99.90;;;;;;4966323;28;20043;-83
2024/02/27 04:04:01;;;;;;;13.18;7.50;;;3.10;99.90;;;;;;4912174;28;20071;-83
2024/02/27 04:06:28;;;;;;;13.93;7.38;;;3.00;99.90;;;;;;4943763;28;20137;-83
2024/02/27 04:08:55;;;;;;;14.85;6.90;;;3.00;99.90;;;;;;4911664;28;20078;-77
2024/02/27 04:11:22;;;;;;;17.50;8.02;;;3.00;99.90;;;;;;4944381;28;20437;-77
2024/02/27 04:13:49;;;;;;;14.45;7.18;;;3.00;99.90;;;;;;4956754;28;20050;-77
2024/02/27 04:16:16;;;;;;;16.40;8.57;;;3.10;99.90;;;;;;4956610;28;20385;-77
2024/02/27 04:18:43;;;;;;;17.02;8.27;;;3.00;99.90;;;;;;4929788;28;20054;-77
2024/02/27 04:21:10;;;;;;;16.90;8.63;;;3.00;99.90;;;;;;4959358;28;20045;-77
2024/02/27 04:23:38;;;;;;;15.13;7.50;;;3.00;99.90;;;;;;4934237;28;20073;-77
2024/02/27 04:26:05;;;;;;;16.98;7.30;;;3.00;99.90;;;;;;4956773;28;20047;-77
2024/02/27 04:28:32;;;;;;;16.42;8.60;;;3.00;99.90;;;;;;4956871;28;20093;-77
2024/02/27 04:30:59;;;;;;;20.45;9.40;;;3.00;99.90;;;;;;4954610;28;20575;-77
2024/02/27 04:33:26;;;;;;;18.52;8.98;;;3.00;99.90;;;;;;4944067;28;20054;-77
2024/02/27 04:35:53;;;;;;;16.50;8.10;;;3.00;99.90;;;;;;4959716;28;20125;-77
2024/02/27 04:38:21;;;;;;;16.77;8.48;;;3.00;99.90;;;;;;4959680;28;20483;-77
2024/02/27 04:40:48;;;;;;;17.05;7.88;;;3.00;99.90;;;;;;4928260;28;20042;-77
2024/02/27 04:43:15;;;;;;;17.90;8.73;;;2.90;99.90;;;;;;4928204;28;20039;-77
2024/02/27 04:45:42;;;;;;;18.95;7.97;;;3.00;99.90;;;;;;4934427;28;20065;-77
2024/02/27 04:48:10;;;;;;;15.85;8.55;;;3.00;99.90;;;;;;4968816;28;20122;-77
2024/02/27 04:50:37;;;;;;;17.52;8.20;;;3.00;99.90;;;;;;4962102;28;20533;-77
2024/02/27 04:53:05;;;;;;;19.52;9.43;;;2.90;99.90;;;;;;4953603;28;20050;-77
2024/02/27 04:55:32;;;;;;;16.70;7.97;;;2.90;99.90;;;;;;4927028;28;20058;-77
2024/02/27 04:57:59;;;;;;;15.98;8.20;;;3.00;99.90;;;;;;4943628;28;20043;-77
2024/02/27 05:00:26;;;;;;;18.48;9.18;;;3.00;99.90;;;;;;4938783;28;20068;-77
2024/02/27 05:02:53;;;;;;;18.50;8.48;;;2.90;99.90;;;;;;4938822;28;20126;-77
2024/02/27 05:05:20;;;;;;;17.40;8.48;;;2.90;99.90;;;;;;4946150;29;20071;-77
2024/02/27 05:07:47;;;;;;;20.45;8.65;;;2.90;99.90;;;;;;4959374;28;20049;-77
2024/02/27 05:10:14;;;;;;;18.70;8.80;;;2.90;99.90;;;;;;4926027;29;20059;-77
2024/02/27 05:12:41;;;;;;;17.92;10.05;;;2.90;99.90;;;;;;4986847;28;20121;-77
2024/02/27 05:15:08;;;;;;;19.17;8.98;;;2.90;99.90;;;;;;4959132;28;20042;-77
2024/02/27 05:17:35;;;;;;;17.35;8.90;;;2.80;99.90;;;;;;4932974;28;20074;-77
2024/02/27 05:20:03;;;;;;;22.02;10.60;;;2.80;99.90;;;;;;4932190;29;20122;-77
2024/02/27 05:22:30;;;;;;;19.30;9.23;;;2.80;99.90;;;;;;4930424;28;20070;-77
2024/02/27 05:24:57;;;;;;;21.83;10.48;;;2.80;99.90;;;;;;4936773;29;20031;-83
2024/02/27 05:27:24;;;;;;;20.10;9.82;;;2.80;99.90;;;;;;4918228;28;20070;-83
2024/02/27 05:29:51;;;;;;;26.55;11.93;;;2.80;99.90;;;;;;4929029;28;20141;-83
2024/02/27 05:32:19;;;;;;;21.57;10.80;;;2.80;99.90;;;;;;4979796;28;20038;-83
2024/02/27 05:34:46;;;;;;;21.20;10.82;;;2.80;99.90;;;;;;4920456;29;20051;-83
2024/02/27 05:37:13;;;;;;;20.45;10.27;;;2.80;99.90;;;;;;4934086;29;20138;-83
2024/02/27 05:39:40;;;;;;;21.08;10.13;;;2.80;99.90;;;;;;4944273;29;20051;-83
2024/02/27 05:42:07;;;;;;;20.10;10.02;;;2.80;99.90;;;;;;4924282;29;20074;-83
2024/02/27 05:44:34;;;;;;;21.50;11.25;;;2.80;99.90;;;;;;4910092;28;20047;-83
2024/02/27 05:47:01;;;;;;;18.23;8.95;;;2.80;99.90;;;;;;4926790;29;20043;-83
2024/02/27 05:49:28;;;;;;;16.50;8.57;;;2.80;99.90;;;;;;4907958;29;20470;-83
2024/02/27 05:51:55;;;;;;;16.08;7.47;;;2.80;99.90;;;;;;4894717;29;20059;-83
2024/02/27 05:54:22;;;;;;;18.13;8.55;;;2.80;99.90;;;;;;4940509;29;20043;-83
2024/02/27 05:56:49;;;;;;;18.98;8.30;;;2.80;99.90;;;;;;4923916;29;20051;-83
2024/02/27 05:59:16;;;;;;;21.45;9.65;;;2.80;99.90;;;;;;4947902;29;20423;-84
2024/02/27 06:01:43;;;;;;;15.73;8.30;;;2.80;99.90;;;;;;4896944;29;20056;-83
2024/02/27 06:04:10;;;;;;;19.70;8.43;;;2.80;99.90;;;;;;4919761;29;20139;-83
2024/02/27 06:06:37;;;;;;;17.92;8.10;;;2.80;99.90;;;;;;4939270;29;20051;-83
2024/02/27 06:09:07;;;;;;;16.52;8.40;;;2.80;99.90;;;;;;4923345;29;20110;-83
2024/02/27 06:11:34;;;;;;;15.68;6.97;;;2.80;99.90;;;;;;4923421;29;20051;-83
2024/02/27 06:14:02;;;;;;;13.70;6.60;;;2.70;99.90;;;;;;4909873;29;20056;-84
2024/02/27 06:16:29;;;;;;;14.73;7.82;;;2.70;99.90;;;;;;4947863;29;20544;-83
2024/02/27 06:18:56;;;;;;;15.02;6.70;;;2.70;99.90;;;;;;4938941;28;20038;-83
2024/02/27 06:24:09;;;;;;;15.70;7.13;;;2.80;99.90;;;;;;4921317;28;20043;-84
2024/02/27 06:26:36;;;;;;;15.77;7.15;;;2.70;99.90;;;;;;4922040;28;20126;-83
2024/02/27 06:29:03;;;;;;;14.57;6.75;;;2.80;99.90;;;;;;4904262;29;20138;-83
2024/02/27 06:31:30;;;;;;;16.98;7.80;;;2.80;99.90;;;;;;4933682;29;20119;-83
2024/02/27 06:33:57;;;;;;;17.43;7.07;;;2.80;99.90;;;;;;4962289;28;20059;-83
2024/02/27 06:36:25;;;;;;;17.20;8.30;;;2.80;99.90;;;;;;4937242;28;20046;-84
2024/02/27 06:38:55;;;;;;;18.25;8.93;;;2.80;99.90;;;;;;4928366;28;20035;-84
2024/02/27 06:41:24;;;;;;;18.33;9.15;;;2.90;99.90;;;;;;4953106;28;20384;-83
2024/02/27 06:43:51;;;;;;;17.42;8.20;;;2.90;99.90;;;;;;4937642;29;20086;-78
2024/02/27 06:46:18;;;;;;;16.08;7.90;;;2.90;99.90;;;;;;4943855;28;20050;-78
2024/02/27 06:48:45;;;;;;;16.08;7.68;;;2.90;99.90;;;;;;4944422;28;20101;-78
2024/02/27 06:51:12;;;;;;;18.83;8.23;;;2.90;99.90;;;;;;4947694;28;20454;-78
2024/02/27 06:53:41;;;;;;;13.50;6.85;;;2.90;99.90;;;;;;4919245;28;20102;-78
2024/02/27 06:56:08;;;;;;;13.13;6.80;;;2.90;99.90;;;;;;4950719;28;20056;-77
2024/02/27 06:58:35;;;;;;;14.05;6.82;;;2.90;99.90;;;;;;4935868;28;20491;-77
2024/02/27 07:01:02;;;;;;;15.60;7.25;;;2.90;99.90;;;;;;4954796;28;20043;-77
2024/02/27 07:03:29;;;;;;;17.70;8.23;;;3.00;99.90;;;;;;4945083;28;20042;-84
2024/02/27 07:05:57;;;;;;;17.00;8.55;;;3.10;99.90;;;;;;4946487;29;20411;-83
2024/02/27 07:08:24;;;;;;;19.10;7.85;;;3.10;99.90;;;;;;4935576;28;20047;-83
2024/02/27 07:10:52;;;;;;;21.80;9.10;;;3.10;99.90;;;;;;4941164;28;20043;-84
2024/02/27 07:13:19;;;;;;;19.83;7.95;;;3.10;99.90;;;;;;4946306;28;20049;-84
2024/02/27 07:15:46;;;;;;;16.90;7.97;;;3.10;99.90;;;;;;4951758;28;20047;-84
2024/02/27 07:18:16;;;;;;;17.17;7.97;;;3.10;99.90;;;;;;4937904;29;20051;-83
2024/02/27 07:20:45;;;;;;;17.25;8.18;;;3.10;99.90;;;;;;4934496;28;20043;-84
2024/02/27 07:23:13;;;;;;;18.45;8.13;;;3.10;99.90;;;;;;4968541;28;20042;-83
2024/02/27 07:25:40;;;;;;;16.50;8.20;;;3.00;99.90;;;;;;4943860;28;20050;-84
2024/02/27 07:28:07;;;;;;;17.27;7.65;;;3.00;99.90;;;;;;4937947;28;20487;-84
2024/02/27 07:30:43;;;;;;;14.07;6.95;;;3.00;99.90;;;;;;4950280;29;20500;-77
2024/02/27 07:33:11;;;;;;;14.88;6.88;;;3.00;99.90;;;;;;4927694;28;20403;-78
2024/02/27 07:35:38;;;;;;;15.18;6.82;;;3.00;99.90;;;;;;4955289;28;20043;-77
2024/02/27 07:38:05;;;;;;;11.70;5.50;;;3.10;99.90;;;;;;4942565;28;20101;-77
2024/02/27 07:40:32;;;;;;;12.48;5.68;;;3.10;99.90;;;;;;4909360;28;20491;-77
2024/02/27 07:42:59;;;;;;;13.30;6.97;;;3.10;99.90;;;;;;4929973;29;20040;-77
2024/02/27 07:45:26;;;;;;;15.82;7.63;;;3.10;99.90;;;;;;4921615;29;20389;-78
2024/02/27 07:47:53;;;;;;;16.50;7.78;;;3.20;99.90;;;;;;4956892;28;20046;-78
2024/02/27 07:50:20;;;;;;;15.27;7.68;;;3.20;99.90;;;;;;4934554;28;20061;-77
2024/02/27 07:52:48;;;;;;;14.15;7.70;;;3.10;99.90;;;;;;4970396;28;20069;-77
2024/02/27 07:55:15;;;;;;;15.05;7.50;;;3.10;99.90;;;;;;4941223;28;20082;-77
2024/02/27 07:57:42;;;;;;;15.63;7.60;;;3.10;99.90;;;;;;4925685;29;20122;-77
2024/02/27 08:00:10;;;;;;;14.02;7.00;;;3.20;99.90;;;;;;4937710;28;20101;-76
2024/02/27 08:02:37;;;;;;;15.40;6.95;;;3.20;99.90;;;;;;4961281;28;20043;-77
2024/02/27 08:05:04;;;;;;;15.05;7.28;;;3.20;99.90;;;;;;4950025;28;20094;-81
2024/02/27 08:07:33;;;;;;;12.77;6.10;;;3.20;99.90;;;;;;4956816;28;20047;-83
2024/02/27 08:10:00;;;;;;;13.85;7.35;;;3.20;99.90;;;;;;4967107;28;20057;-83
2024/02/27 08:12:27;;;;;;;14.50;7.28;;;3.30;99.90;;;;;;4962053;28;20066;-82
2024/02/27 08:14:54;;;;;;;18.52;9.50;;;3.30;99.90;;;;;;4971245;28;20129;-82
2024/02/27 08:17:21;;;;;;;18.20;9.02;;;3.30;99.90;;;;;;4926347;28;20051;-82
2024/02/27 08:19:49;;;;;;;20.00;9.38;;;3.30;99.90;;;;;;4921290;29;20055;-84
2024/02/27 08:22:16;;;;;;;15.20;8.18;;;3.30;99.90;;;;;;4934060;28;20043;-83
2024/02/27 08:24:43;;;;;;;16.27;8.25;;;3.40;99.90;;;;;;4945314;28;20094;-78
2024/02/27 08:27:11;;;;;;;19.58;9.10;;;3.50;99.90;;;;;;4952748;28;20047;-77
2024/02/27 08:29:38;;;;;;;16.63;7.85;;;3.50;99.90;;;;;;4948979;28;20050;-77
2024/02/27 08:32:05;;;;;;;16.35;7.35;;;3.50;99.90;;;;;;4991038;28;20046;-78
2024/02/27 08:34:32;;;;;;;15.75;7.07;;;3.50;99.90;;;;;;4940803;29;20059;-77
2024/02/27 08:37:00;;;;;;;15.90;7.75;;;3.60;99.90;;;;;;4894390;29;20058;-78
2024/02/27 08:39:27;;;;;;;14.65;6.60;;;3.60;99.90;;;;;;4925285;29;20039;-77
2024/02/27 08:41:54;;;;;;;12.20;6.65;;;3.70;99.90;;;;;;4905971;29;20048;-75
2024/02/27 08:44:21;;;;;;;12.02;5.30;;;3.80;99.90;;;;;;4940875;29;20407;-74
2024/02/27 08:46:51;;;;;;;13.88;7.00;;;4.00;99.90;;;;;;4936398;28;20090;-75
2024/02/27 08:49:18;;;;;;;11.52;6.15;;;4.20;99.90;;;;;;4940861;29;20054;-75
2024/02/27 08:51:45;;;;;;;13.32;6.72;;;4.20;99.90;;;;;;4896631;29;20142;-74
2024/02/27 08:54:12;;;;;;;15.52;7.65;;;4.40;99.90;;;;;;4921098;29;20055;-74
2024/02/27 08:56:40;;;;;;;13.52;7.35;;;4.30;99.90;;;;;;4932631;29;20137;-75
2024/02/27 08:59:06;;;;;;;17.13;8.55;;;4.30;99.90;;;;;;4924303;29;20147;-75
2024/02/27 09:01:33;;;;;;;13.20;6.68;;;4.30;99.90;;;;;;4921246;29;20048;-75
2024/02/27 09:04:01;;;;;;;16.10;8.48;;;4.40;99.90;;;;;;4901367;29;20099;-75
2024/02/27 09:06:28;;;;;;;13.38;6.68;;;4.50;99.90;;;;;;4935634;28;20443;-75
2024/02/27 09:08:55;;;;;;;14.18;7.47;;;4.60;99.90;;;;;;4945559;28;20388;-75
2024/02/27 09:11:22;;;;;;;14.23;6.82;;;4.60;99.90;;;;;;4924364;29;20055;-76
2024/02/27 09:13:49;;;;;;;13.10;7.53;;;4.60;99.90;;;;;;4924714;29;20050;-76
2024/02/27 09:16:16;;;;;;;11.32;6.05;;;4.50;99.90;;;;;;4893340;29;20055;-76
2024/02/27 09:18:44;;;;;;;12.25;6.07;;;4.60;99.90;;;;;;4927649;28;20094;-77
2024/02/27 09:21:12;;;;;;;14.48;6.25;;;4.70;99.90;;;;;;4941733;29;20044;-76
2024/02/27 09:23:39;;;;;;;10.88;5.70;;;4.70;99.90;;;;;;4930211;29;20496;-81
2024/02/27 09:26:06;;;;;;;13.35;6.97;;;4.80;99.90;;;;;;4924229;29;20106;-76
2024/02/27 09:28:33;;;;;;;12.32;5.80;;;4.90;99.90;;;;;;4964250;28;20102;-76
2024/02/27 09:31:04;;;;;;;11.48;6.15;;;5.00;99.90;;;;;;4957529;28;20053;-76
2024/02/27 09:33:34;;;;;;;13.65;6.95;;;5.00;99.90;;;;;;4940453;28;20051;-75
2024/02/27 09:36:01;;;;;;;13.68;7.32;;;4.90;99.90;;;;;;4947987;28;20083;-75
2024/02/27 09:38:28;;;;;;;13.80;6.38;;;4.90;99.90;;;;;;4958888;28;20965;-76
2024/02/27 09:41:00;;;;;;;14.27;6.72;;;5.00;99.90;;;;;;4958928;28;20447;-77
2024/02/27 09:43:30;;;;;;;10.50;5.93;;;5.00;99.90;;;;;;4942769;28;20058;-75
2024/02/27 09:45:58;;;;;;;11.85;5.43;;;5.10;99.90;;;;;;4965334;28;20074;-77
2024/02/27 09:48:29;;;;;;;13.27;6.80;;;5.10;99.90;;;;;;4952542;28;20062;-76
2024/02/27 09:50:58;;;;;;;12.45;6.35;;;5.10;99.90;;;;;;4955561;28;20050;-77
2024/02/27 09:53:25;;;;;;;11.38;6.13;;;5.20;99.90;;;;;;4952685;28;20537;-76
2024/02/27 09:55:55;;;;;;;12.95;6.40;;;5.30;99.90;;;;;;4970331;28;20038;-77
2024/02/27 09:58:22;;;;;;;12.07;5.05;;;5.30;99.90;;;;;;4952480;28;20785;-76
2024/02/27 10:00:57;;;;;;;11.45;5.30;;;5.40;99.90;;;;;;4964068;28;20090;-76
2024/02/27 10:03:24;;;;;;;9.85;5.13;;;5.60;99.90;;;;;;4943129;28;20130;-78
2024/02/27 10:05:52;;;;;;;13.23;6.68;;;5.60;99.90;;;;;;4929129;28;20035;-76
2024/02/27 10:08:23;;;;;;;10.55;6.35;;;5.60;99.90;;;;;;4973301;28;20076;-76
2024/02/27 10:10:53;;;;;;;10.48;5.65;;;5.60;99.90;;;;;;4952852;28;20407;-76
2024/02/27 10:13:20;;;;;;;12.13;7.25;;;5.50;99.90;;;;;;4965866;28;20054;-76
2024/02/27 10:15:47;;;;;;;11.80;5.85;;;5.40;99.90;;;;;;4948872;28;20171;-76
2024/02/27 10:18:15;;;;;;;11.43;5.32;;;5.30;99.90;;;;;;4944550;29;20611;-77
2024/02/27 10:20:45;;;;;;;11.52;5.78;;;5.30;99.90;;;;;;4942447;28;20039;-77
2024/02/27 10:23:14;;;;;;;9.30;5.22;;;5.40;99.90;;;;;;4923218;28;20043;-77
2024/02/27 10:25:42;;;;;;;9.38;4.93;;;5.50;99.90;;;;;;4968296;28;20101;-78
2024/02/27 10:28:09;;;;;;;8.32;4.22;;;5.70;99.90;;;;;;4928906;28;20518;-77
2024/02/27 10:30:37;;;;;;;9.15;5.15;;;5.80;99.90;;;;;;4926246;28;20841;-77
2024/02/27 10:33:07;;;;;;;9.80;5.30;;;5.90;99.90;;;;;;4941747;28;20050;-77
2024/02/27 10:35:35;;;;;;;10.88;6.13;;;6.00;99.90;;;;;;4936883;29;20066;-77
2024/02/27 10:38:15;;;;;;;11.20;5.93;;;5.90;99.90;;;;;;4958273;28;20051;-77
2024/02/27 10:40:42;;;;;;;10.75;6.05;;;5.90;99.90;;;;;;4932744;28;20518;-77
2024/02/27 10:43:09;;;;;;;9.80;5.10;;;5.90;99.90;;;;;;4945491;29;20039;-76
2024/02/27 10:45:37;;;;;;;8.95;5.07;;;6.00;99.90;;;;;;4941171;28;20109;-77
2024/02/27 10:48:04;;;;;;;11.10;5.93;;;6.20;99.90;;;;;;4941837;28;20376;-77
2024/02/27 10:50:33;;;;;;;9.57;4.85;;;6.30;99.90;;;;;;4941834;28;20383;-77
2024/02/27 10:53:00;;;;;;;9.90;5.10;;;6.40;99.90;;;;;;4963591;28;20121;-77
2024/02/27 10:55:29;;;;;;;10.60;5.80;;;6.50;99.90;;;;;;4945404;28;20529;-77
2024/02/27 10:57:59;;;;;;;10.10;5.70;;;6.50;99.90;;;;;;4985234;28;20126;-77
2024/02/27 11:00:27;;;;;;;9.65;4.95;;;6.30;99.90;;;;;;4943753;28;20109;-77
2024/02/27 11:03:00;;;;;;;9.82;5.20;;;6.30;99.90;;;;;;4953443;28;20035;-77
2024/02/27 11:05:29;;;;;;;9.68;5.50;;;6.30;99.90;;;;;;4945566;28;20047;-77
2024/02/27 11:07:57;;;;;;;10.25;6.03;;;6.40;99.90;;;;;;4954542;28;20049;-77
2024/02/27 11:10:29;;;;;;;9.82;5.05;;;6.60;99.90;;;;;;4941547;28;20061;-77
2024/02/27 11:13:00;;;;;;;8.85;4.78;;;6.70;99.90;;;;;;4949482;28;20065;-77
2024/02/27 11:15:30;;;;;;;8.10;4.93;;;6.80;99.90;;;;;;4993071;28;20038;-77
2024/02/27 11:18:03;;;;;;;9.60;5.43;;;6.90;99.90;;;;;;4946712;28;20181;-77
2024/02/27 11:20:31;;;;;;;10.45;5.43;;;6.90;99.90;;;;;;4960479;28;20041;-77
2024/02/27 11:22:59;;;;;;;9.60;4.70;;;6.90;99.90;;;;;;4971737;28;20046;-77
2024/02/27 11:25:26;;;;;;;10.40;5.25;;;6.90;99.90;;;;;;4931332;28;20456;-77
2024/02/27 11:27:56;;;;;;;8.27;4.13;;;6.90;99.90;;;;;;4954808;28;20061;-77
2024/02/27 11:30:24;;;;;;;9.35;5.28;;;6.90;99.90;;;;;;4972136;28;20122;-77
2024/02/27 11:32:52;;;;;;;7.65;4.15;;;6.90;99.90;;;;;;4948430;28;20051;-77
2024/02/27 11:35:21;;;;;;;10.48;4.72;;;6.90;99.90;;;;;;4915865;28;20127;-80
2024/02/27 11:37:49;;;;;;;10.18;5.60;;;6.90;99.90;;;;;;4947065;28;20153;-77
2024/02/27 11:40:49;;;;;;;10.27;5.82;;;7.10;99.90;;;;;;4957750;28;20039;-76
2024/02/27 11:43:18;;;;;;;9.98;6.18;;;7.20;99.90;;;;;;4963118;28;20039;-76
2024/02/27 11:45:45;;;;;;;10.73;5.55;;;7.20;99.90;;;;;;4925132;29;20098;-76
2024/02/27 11:48:13;;;;;;;10.40;5.80;;;7.20;99.90;;;;;;4966848;28;20035;-77
2024/02/27 11:50:40;;;;;;;10.98;6.22;;;7.20;99.90;;;;;;4939115;28;20058;-80
2024/02/27 11:53:16;;;;;;;9.88;5.72;;;7.10;99.90;;;;;;4950019;28;20058;-79
2024/02/27 11:55:48;;;;;;;9.45;6.15;;;7.00;99.90;;;;;;4966464;28;20116;-79
2024/02/27 11:58:17;;;;;;;11.15;5.82;;;6.90;99.90;;;;;;4964210;28;20142;-78
2024/02/27 12:00:45;;;;;;;10.93;5.60;;;6.80;99.90;;;;;;4941165;28;20047;-78
2024/02/27 12:03:13;;;;;;;9.30;5.68;;;6.70;99.90;;;;;;4942372;28;20070;-77
2024/02/27 12:05:47;;;;;;;9.35;5.13;;;6.60;99.90;;;;;;4933939;28;20042;-79
2024/02/27 12:08:18;;;;;;;7.88;4.32;;;6.60;99.90;;;;;;4951789;28;20047;-79
2024/02/27 12:10:46;;;;;;;8.52;4.53;;;6.60;99.90;;;;;;4928087;28;20051;-78
2024/02/27 12:13:13;;;;;;;8.35;4.32;;;6.60;99.90;;;;;;4949154;29;20118;-80
2024/02/27 12:15:41;;;;;;;7.60;4.03;;;6.70;99.90;;;;;;4946526;28;20051;-80
2024/02/27 12:18:08;;;;;;;9.07;4.95;;;6.80;99.90;;;;;;4950213;29;20110;-79
2024/02/27 12:20:35;;;;;;;7.45;4.30;;;6.80;99.90;;;;;;4934618;28;20043;-77
2024/02/27 12:23:02;;;;;;;6.60;4.10;;;6.80;99.90;;;;;;4927219;28;20062;-76
2024/02/27 12:25:41;;;;;;;8.82;4.57;;;6.80;99.90;;;;;;4929951;29;20051;-77
2024/02/27 12:28:14;;;;;;;8.55;5.40;;;6.90;99.90;;;;;;4967988;28;20051;-78
2024/02/27 12:30:50;;;;;;;7.93;4.15;;;6.80;99.90;;;;;;4944211;28;20042;-87
2024/02/27 12:33:18;;;;;;;8.38;4.32;;;6.80;99.90;;;;;;4985928;28;20477;-82
2024/02/27 12:35:45;;;;;;;9.15;5.32;;;6.70;99.90;;;;;;4906399;29;20132;-79
2024/02/27 12:38:13;;;;;;;9.00;5.13;;;6.60;99.90;;;;;;4909159;29;20047;-79
2024/02/27 12:40:41;;;;;;;9.50;5.35;;;6.50;99.90;;;;;;4925167;29;20047;-80
2024/02/27 12:43:09;;;;;;;8.32;4.53;;;6.50;99.90;;;;;;4940691;29;20058;-79
2024/02/27 12:45:37;;;;;;;8.18;4.70;;;6.50;99.90;;;;;;4896412;29;20130;-80
2024/02/27 12:48:05;;;;;;;8.65;5.25;;;6.50;99.90;;;;;;4899258;29;20039;-80
2024/02/27 12:50:33;;;;;;;7.55;4.18;;;6.50;99.90;;;;;;4907824;29;20492;-79
2024/02/27 12:53:01;;;;;;;7.65;4.03;;;6.50;99.90;;;;;;4946966;29;20046;-77
2024/02/27 12:55:39;;;;;;;8.02;3.78;;;6.50;99.90;;;;;;4941918;29;20566;-78